Time;durP1;ratioP1;P1;durP2;ratioP2;P2;SDS_P1;SDS_P2;PMS_P1;PMS_P2;Temp;Humidity;BMP_temperature;BMP_pressure;BME280_temperature;BME280_humidity;BME280_pressure;Samples;Min_cycle;Max_cycle;Signal;HPM_P1;HPM_P2
2023/03/03 00:01:06;;;;;;;;;64.33;51.33;;;;;6.81;52.07;101486.44;5015525;28;45346;-58
2023/03/03 00:03:32;;;;;;;;;67.67;54.00;;;;;6.92;52.01;101509.81;5015648;28;45465;-59
2023/03/03 00:05:58;;;;;;;;;69.00;55.25;;;;;6.98;51.80;101509.13;5017362;28;45329;-59
2023/03/03 00:08:24;;;;;;;;;64.00;50.33;;;;;6.95;51.91;101512.22;5031508;28;45902;-58
2023/03/03 00:10:49;;;;;;;;;71.00;52.25;;;;;6.73;52.61;101478.25;5016897;28;45362;-56
2023/03/03 00:13:16;;;;;;;;;68.50;52.25;;;;;6.79;52.21;101496.66;5017000;28;45347;-57
2023/03/03 00:15:42;;;;;;;;;64.75;51.00;;;;;6.81;52.36;101508.25;5015405;28;45281;-58
2023/03/03 00:18:32;;;;;;;;;64.00;50.75;;;;;6.65;51.98;101495.44;5016654;28;45786;-57
2023/03/03 00:20:59;;;;;;;;;63.50;49.75;;;;;6.76;52.73;101508.78;5018069;28;45467;-57
2023/03/03 00:23:30;;;;;;;;;66.25;50.75;;;;;6.82;51.99;101515.41;5055002;28;45480;-60
2023/03/03 00:25:56;;;;;;;;;62.75;49.25;;;;;6.39;51.98;101436.41;5055756;28;45579;-58
2023/03/03 00:28:26;;;;;;;;;65.00;51.75;;;;;6.84;52.01;101521.56;5054963;28;47318;-59
2023/03/03 00:30:52;;;;;;;;;68.25;51.50;;;;;6.80;52.52;101505.69;5045448;28;46660;-57
2023/03/03 00:33:31;;;;;;;;;63.00;50.25;;;;;6.83;52.55;101503.47;5033702;28;45595;-58
2023/03/03 00:36:20;;;;;;;;;64.50;50.50;;;;;6.33;51.99;101446.13;5036911;28;45385;-56
2023/03/03 00:38:46;;;;;;;;;71.25;52.75;;;;;6.81;52.14;101504.66;5034516;28;46655;-57
2023/03/03 00:41:25;;;;;;;;;65.50;52.25;;;;;6.73;52.49;101516.44;5036395;28;45668;-58
2023/03/03 00:43:51;;;;;;;;;64.25;50.00;;;;;6.76;52.24;101510.63;5036334;28;45356;-57
2023/03/03 00:46:18;;;;;;;;;63.75;51.50;;;;;6.75;52.14;101519.84;5036505;28;45327;-57
2023/03/03 00:48:44;;;;;;;;;63.25;51.00;;;;;6.49;52.62;101468.97;5017159;28;46489;-59
2023/03/03 00:51:21;;;;;;;;;60.50;47.75;;;;;6.63;52.53;101511.13;5035842;28;45688;-59
2023/03/03 00:53:47;;;;;;;;;65.75;51.50;;;;;6.61;52.79;101508.56;5034319;28;45422;-58
2023/03/03 00:56:13;;;;;;;;;61.50;45.50;;;;;6.64;52.33;101510.97;5034842;28;45585;-58
2023/03/03 00:58:38;;;;;;;;;65.25;51.50;;;;;6.64;51.99;101510.97;5035363;28;45730;-58
2023/03/03 01:01:04;;;;;;;;;58.25;45.50;;;;;6.63;52.58;101508.41;5035804;28;45291;-58
2023/03/03 01:03:29;;;;;;;;;55.00;45.00;;;;;6.63;52.33;101511.97;5035372;28;45485;-57
2023/03/03 01:05:55;;;;;;;;;67.25;49.50;;;;;6.58;52.92;101506.19;5034493;28;45420;-57
2023/03/03 01:08:21;;;;;;;;;69.00;53.00;;;;;6.55;52.68;101503.78;5034284;28;47179;-57
2023/03/03 01:10:54;;;;;;;;;60.50;50.50;;;;;6.63;52.69;101511.97;5034128;28;45390;-57
2023/03/03 01:13:22;;;;;;;;;65.00;50.25;;;;;6.66;52.51;101512.69;5034479;28;45500;-58
2023/03/03 01:15:48;;;;;;;;;67.50;49.25;;;;;6.60;52.48;101515.03;5034005;28;45497;-56
2023/03/03 01:18:13;;;;;;;;;67.50;50.25;;;;;6.56;52.31;101521.84;5034224;28;46469;-57
2023/03/03 01:20:39;;;;;;;;;63.00;50.25;;;;;6.50;52.22;101522.50;5034201;28;45314;-55
2023/03/03 01:23:04;;;;;;;;;65.50;50.50;;;;;6.57;52.30;101512.63;5050558;28;45346;-55
2023/03/03 01:25:30;;;;;;;;;64.00;48.25;;;;;6.60;52.29;101519.63;5054736;28;45275;-57
2023/03/03 01:27:56;;;;;;;;;58.00;43.25;;;;;6.36;52.30;101494.84;5055299;28;45975;-57
2023/03/03 01:30:21;;;;;;;;;64.75;48.25;;;;;6.46;52.39;101513.81;5055326;28;45377;-57
2023/03/03 01:32:47;;;;;;;;;60.25;48.00;;;;;6.43;52.96;101518.72;4986817;28;45551;-56
2023/03/03 01:35:12;;;;;;;;;68.00;51.00;;;;;6.47;52.91;101528.31;5001282;28;45225;-55
2023/03/03 01:37:38;;;;;;;;;66.25;49.25;;;;;6.45;52.61;101522.16;5015548;28;45424;-57
2023/03/03 01:40:05;;;;;;;;;64.50;51.25;;;;;6.46;53.08;101526.59;5013656;28;45537;-59
2023/03/03 01:42:30;;;;;;;;;68.50;50.50;;;;;6.48;53.05;101522.69;5015401;28;45345;-56
2023/03/03 01:45:25;;;;;;;;;61.50;49.25;;;;;6.50;53.06;101523.38;5014244;28;45336;-56
2023/03/03 01:47:59;;;;;;;;;67.25;50.75;;;;;6.44;53.17;101526.75;5013636;28;48068;-56
2023/03/03 01:50:49;;;;;;;;;66.25;51.00;;;;;6.40;52.50;101513.63;5013852;28;45401;-56
2023/03/03 01:53:17;;;;;;;;;60.50;48.50;;;;;6.45;52.72;101514.81;5014404;28;45350;-56
2023/03/03 01:55:43;;;;;;;;;59.00;47.50;;;;;6.33;53.13;101494.34;5015565;28;45390;-54
2023/03/03 01:58:27;;;;;;;;;63.50;51.25;;;;;6.46;52.87;101512.97;5013750;28;46368;-56
2023/03/03 02:00:56;;;;;;;;;65.75;51.50;;;;;6.17;53.27;101459.69;5014997;28;45299;-56
2023/03/03 02:03:22;;;;;;;;;65.75;48.00;;;;;6.44;53.29;101507.66;4997472;28;45395;-56
2023/03/03 02:05:47;;;;;;;;;66.00;51.50;;;;;6.41;53.42;101498.97;5014106;28;45603;-55
2023/03/03 02:08:15;;;;;;;;;62.75;49.50;;;;;6.41;53.79;101510.72;5015359;28;46535;-57
2023/03/03 02:10:40;;;;;;;;;60.00;44.75;;;;;6.36;53.93;101503.03;5013701;28;45440;-57
2023/03/03 02:13:06;;;;;;;;;54.25;45.75;;;;;6.32;53.61;101496.22;5014057;28;45358;-56
2023/03/03 02:15:35;;;;;;;;;61.00;46.50;;;;;6.16;53.99;101477.94;5013734;28;45323;-55
2023/03/03 02:18:06;;;;;;;;;70.50;51.00;;;;;6.33;53.92;101508.84;5013700;28;45414;-57
2023/03/03 02:20:40;;;;;;;;;64.00;50.50;;;;;6.32;53.80;101500.81;5013463;28;45289;-57
2023/03/03 02:23:11;;;;;;;;;57.50;47.50;;;;;6.22;53.82;101496.34;5026147;28;45315;-57
2023/03/03 02:25:51;;;;;;;;;64.75;50.50;;;;;6.00;53.49;101458.75;5033436;28;45534;-55
2023/03/03 02:28:17;;;;;;;;;66.50;51.25;;;;;6.22;54.27;101507.25;5017191;28;46522;-55
2023/03/03 02:30:42;;;;;;;;;64.75;51.00;;;;;6.16;53.99;101490.69;5033293;28;45283;-57
2023/03/03 02:33:08;;;;;;;;;70.50;50.00;;;;;5.99;54.74;101459.75;5025054;28;46338;-57
2023/03/03 02:35:36;;;;;;;;;62.25;48.75;;;;;5.89;53.98;101446.25;5032144;28;45609;-57
2023/03/03 02:38:07;;;;;;;;;62.75;50.50;;;;;6.14;54.02;101506.38;5032758;28;45512;-56
2023/03/03 02:40:35;;;;;;;;;64.25;51.75;;;;;6.12;54.52;101506.53;5016372;28;45296;-57
2023/03/03 02:43:00;;;;;;;;;60.00;44.00;;;;;6.02;54.70;101498.47;5016733;28;45474;-57
2023/03/03 02:45:26;;;;;;;;;67.50;53.25;;;;;5.96;54.43;101504.53;5016869;28;45486;-57
2023/03/03 02:47:51;;;;;;;;;66.00;51.00;;;;;5.94;55.38;101504.69;5034213;28;46279;-57
2023/03/03 02:50:17;;;;;;;;;63.50;51.75;;;;;5.95;55.13;101500.97;5034169;28;45433;-57
2023/03/03 02:52:43;;;;;;;;;61.50;46.00;;;;;5.91;54.82;101510.47;5032597;28;45534;-56
2023/03/03 02:55:08;;;;;;;;;66.50;50.25;;;;;5.87;54.51;101502.81;5032769;28;45347;-57
2023/03/03 02:57:34;;;;;;;;;62.75;50.25;;;;;5.85;54.80;101505.69;5033630;28;45526;-56
2023/03/03 02:59:59;;;;;;;;;61.00;45.50;;;;;5.75;55.47;101508.53;5033737;28;45338;-57
2023/03/03 03:02:26;;;;;;;;;64.50;49.75;;;;;5.67;56.13;101506.59;5033871;28;45466;-55
2023/03/03 03:04:51;;;;;;;;;68.75;50.75;;;;;5.67;55.89;101508.47;5033842;28;45231;-56
2023/03/03 03:07:17;;;;;;;;;61.25;47.50;;;;;5.69;55.88;101507.31;5032234;28;47338;-55
2023/03/03 03:09:42;;;;;;;;;69.00;51.50;;;;;5.66;55.97;101501.31;5033752;28;45157;-56
2023/03/03 03:12:08;;;;;;;;;62.50;48.00;;;;;5.70;56.23;101503.56;5015576;28;45328;-56
2023/03/03 03:14:34;;;;;;;;;71.50;52.75;;;;;5.61;55.87;101485.44;5033892;28;45514;-57
2023/03/03 03:17:00;;;;;;;;;58.00;48.50;;;;;5.52;55.80;101470.94;5015587;28;45461;-58
2023/03/03 03:19:25;;;;;;;;;62.00;48.25;;;;;5.78;55.58;101497.31;5032307;28;45496;-56
2023/03/03 03:21:51;;;;;;;;;66.75;52.25;;;;;5.77;55.97;101503.75;5034525;28;45402;-56
2023/03/03 03:24:17;;;;;;;;;62.00;50.75;;;;;5.68;56.26;101505.59;5054300;28;46007;-57
2023/03/03 03:26:42;;;;;;;;;61.25;47.50;;;;;5.67;55.74;101503.03;5053747;28;45791;-56
2023/03/03 03:29:08;;;;;;;;;65.50;48.25;;;;;5.66;55.53;101499.44;5053726;28;45457;-56
2023/03/03 03:31:33;;;;;;;;;66.50;47.00;;;;;5.63;56.55;101501.63;5053985;28;45366;-56
2023/03/03 03:33:59;;;;;;;;;63.00;47.25;;;;;5.37;56.18;101469.81;5052456;28;45326;-56
2023/03/03 03:36:25;;;;;;;;;61.75;48.50;;;;;5.16;56.59;101441.09;5022114;28;48386;-56
2023/03/03 03:38:51;;;;;;;;;64.25;49.25;;;;;5.40;57.05;101497.56;5019363;28;45417;-56
2023/03/03 03:41:17;;;;;;;;;66.00;47.00;;;;;5.36;57.29;101495.31;5013493;28;45321;-56
2023/03/03 03:43:42;;;;;;;;;66.25;52.00;;;;;5.04;56.79;101447.78;5013967;28;45216;-57
2023/03/03 03:46:08;;;;;;;;;66.75;50.25;;;;;5.21;57.35;101467.81;5013698;28;45845;-56
2023/03/03 03:48:33;;;;;;;;;60.75;47.75;;;;;5.47;57.63;101511.41;5028922;28;45447;-57
2023/03/03 03:50:59;;;;;;;;;62.00;47.25;;;;;5.46;56.29;101517.88;5013397;28;45380;-57
2023/03/03 03:53:24;;;;;;;;;64.00;48.75;;;;;5.41;57.37;101514.75;5014172;28;45565;-57
2023/03/03 03:55:50;;;;;;;;;61.00;45.00;;;;;5.39;57.25;101519.53;5013281;28;45394;-57
2023/03/03 03:58:16;;;;;;;;;70.00;54.00;;;;;5.36;57.40;101522.53;5028403;28;45256;-56
2023/03/03 04:00:41;;;;;;;;;55.50;45.75;;;;;5.14;57.39;101497.53;5013613;28;45409;-57
2023/03/03 04:03:08;;;;;;;;;66.25;51.75;;;;;5.10;57.00;101496.13;5012011;28;45282;-57
2023/03/03 04:05:33;;;;;;;;;76.33;57.00;;;;;5.24;58.06;101530.13;5013573;28;45443;-57
2023/03/03 04:07:59;;;;;;;;;65.75;53.00;;;;;5.20;57.85;101539.59;5011915;28;45315;-57
2023/03/03 04:10:24;;;;;;;;;61.75;51.00;;;;;5.21;57.94;101530.41;5012157;28;45286;-56
2023/03/03 04:12:50;;;;;;;;;75.67;54.00;;;;;5.18;58.18;101538.91;5013747;28;45170;-56
2023/03/03 04:15:15;;;;;;;;;66.00;52.00;;;;;5.04;58.64;101519.41;5012994;28;45516;-54
2023/03/03 04:17:41;;;;;;;;;66.00;51.67;;;;;4.95;58.12;101498.56;5013355;28;45372;-53
2023/03/03 04:20:07;;;;;;;;;70.50;46.50;;;;;5.11;57.53;101515.03;5012173;28;45297;-54
2023/03/03 04:22:34;;;;;;;;;64.00;50.25;;;;;5.18;58.74;101519.84;5017498;28;45792;-56
2023/03/03 04:25:03;;;;;;;;;65.33;50.00;;;;;5.20;59.24;101528.72;5055131;28;45882;-57
2023/03/03 04:27:32;;;;;;;;;66.33;48.33;;;;;5.07;58.70;101529.13;5056553;28;45329;-56
2023/03/03 04:29:57;;;;;;;;;66.67;50.33;;;;;4.74;59.85;101494.28;5056618;28;45379;-56
2023/03/03 04:32:23;;;;;;;;;68.67;51.67;;;;;4.92;59.74;101531.53;5055280;28;45419;-57
2023/03/03 04:34:48;;;;;;;;;63.67;51.00;;;;;4.92;60.76;101542.41;5055488;28;46523;-56
2023/03/03 04:37:14;;;;;;;;;64.67;49.33;;;;;4.75;60.62;101525.91;5056472;28;45383;-56
2023/03/03 04:39:39;;;;;;;;;67.00;52.00;;;;;4.79;61.77;101553.69;5055123;28;45253;-55
2023/03/03 04:42:05;;;;;;;;;61.00;44.33;;;;;4.57;60.83;101506.84;5055704;28;45294;-56
2023/03/03 04:44:30;;;;;;;;;67.00;52.67;;;;;4.63;61.02;101519.00;5037877;28;47732;-57
2023/03/03 04:46:56;;;;;;;;;61.67;47.33;;;;;4.80;61.61;101544.50;5056357;28;45409;-57
2023/03/03 04:49:21;;;;;;;;;64.67;52.00;;;;;4.73;61.18;101547.84;5056462;28;45327;-56
2023/03/03 04:51:47;;;;;;;;;68.33;51.33;;;;;4.62;62.23;101553.50;5056718;28;45691;-57
2023/03/03 04:54:12;;;;;;;;;72.67;55.33;;;;;4.53;62.49;101544.38;5055084;28;46001;-58
2023/03/03 04:56:38;;;;;;;;;65.00;51.33;;;;;4.61;62.22;101558.06;5056102;28;45261;-57
2023/03/03 04:59:04;;;;;;;;;70.67;52.00;;;;;4.61;61.66;101536.31;5056691;28;45377;-51
2023/03/03 05:01:29;;;;;;;;;67.33;52.00;;;;;4.69;61.83;101542.88;5056547;28;45317;-56
2023/03/03 05:03:54;;;;;;;;;65.33;52.33;;;;;4.71;61.56;101540.84;5054678;28;46129;-56
2023/03/03 05:06:20;;;;;;;;;67.33;50.33;;;;;4.66;62.34;101549.47;5056022;28;45246;-57
2023/03/03 05:08:46;;;;;;;;;68.67;53.00;;;;;4.57;61.73;101525.91;5056449;28;45194;-58
2023/03/03 05:11:12;;;;;;;;;72.67;57.00;;;;;4.63;62.16;101549.75;5055437;28;45341;-55
2023/03/03 05:13:38;;;;;;;;;68.33;51.00;;;;;4.62;61.58;101545.31;5055397;28;46234;-56
2023/03/03 05:16:04;;;;;;;;;65.67;52.33;;;;;4.59;61.73;101546.50;5055990;28;45374;-56
2023/03/03 05:18:29;;;;;;;;;64.67;52.00;;;;;4.56;62.70;101549.53;5055881;28;45430;-57
2023/03/03 05:20:55;;;;;;;;;66.33;54.00;;;;;4.52;62.38;101553.53;5054341;28;45516;-56
2023/03/03 05:23:21;;;;;;;;;69.67;50.33;;;;;4.55;62.60;101550.53;5034985;28;46601;-57
2023/03/03 05:25:47;;;;;;;;;58.00;47.67;;;;;4.55;62.35;101547.81;5052673;28;45449;-55
2023/03/03 05:28:12;;;;;;;;;65.33;52.67;;;;;4.27;61.64;101498.03;5054117;28;45464;-57
2023/03/03 05:30:38;;;;;;;;;65.33;53.00;;;;;4.61;62.50;101540.91;5054354;28;45428;-58
2023/03/03 05:33:04;;;;;;;;;64.00;49.33;;;;;4.52;62.19;101545.38;5055664;28;45695;-57
2023/03/03 05:35:29;;;;;;;;;69.00;51.00;;;;;4.52;62.53;101542.66;5054006;28;45372;-56
2023/03/03 05:37:56;;;;;;;;;77.67;57.00;;;;;4.33;63.14;101521.91;5055670;28;45380;-56
2023/03/03 05:40:22;;;;;;;;;66.33;48.67;;;;;4.43;62.68;101547.16;5054721;28;45374;-57
2023/03/03 05:42:48;;;;;;;;;71.00;55.33;;;;;4.45;63.18;101552.44;5054896;28;46446;-56
2023/03/03 05:45:13;;;;;;;;;66.67;51.67;;;;;4.47;62.89;101543.13;5055408;28;45330;-57
2023/03/03 05:47:39;;;;;;;;;71.33;55.00;;;;;4.53;62.50;101548.97;5055544;28;45554;-56
2023/03/03 05:50:05;;;;;;;;;68.33;54.33;;;;;4.61;62.38;101540.91;5055612;28;45368;-55
2023/03/03 05:52:30;;;;;;;;;72.00;53.00;;;;;4.60;61.91;101547.34;5055455;28;45407;-56
2023/03/03 05:54:56;;;;;;;;;67.00;52.00;;;;;4.59;61.75;101548.38;5053407;28;45323;-56
2023/03/03 05:57:21;;;;;;;;;66.33;53.67;;;;;4.58;62.41;101547.50;5055427;28;45352;-55
2023/03/03 05:59:47;;;;;;;;;72.67;54.00;;;;;4.57;62.43;101551.22;5055418;28;45897;-56
2023/03/03 06:02:12;;;;;;;;;47.33;43.67;;;;;4.58;62.19;101562.94;5055048;28;46182;-58
2023/03/03 06:04:38;;;;;;;;;70.50;55.00;;;;;4.55;62.32;101546.94;5054948;28;45476;-57
2023/03/03 06:07:04;;;;;;;;;64.33;48.00;;;;;4.48;62.43;101549.41;5054999;28;45376;-57
2023/03/03 06:09:29;;;;;;;;;65.00;51.00;;;;;4.48;62.13;101557.56;5053990;28;45329;-57
2023/03/03 06:11:55;;;;;;;;;66.33;50.33;;;;;4.42;62.69;101566.31;5036481;28;46124;-55
2023/03/03 06:14:22;;;;;;;;;75.00;55.33;;;;;4.36;63.42;101556.91;5055207;28;45169;-57
2023/03/03 06:16:47;;;;;;;;;66.00;52.67;;;;;4.31;63.37;101557.38;5053442;28;45500;-56
2023/03/03 06:19:13;;;;;;;;;65.33;52.67;;;;;4.28;63.24;101563.09;5054873;28;45432;-56
2023/03/03 06:21:39;;;;;;;;;66.33;53.67;;;;;3.28;63.66;101425.13;5054876;28;46591;-55
2023/03/03 06:24:05;;;;;;;;;66.00;52.00;;;;;4.08;63.95;101559.63;5040788;28;45413;-56
2023/03/03 06:26:31;;;;;;;;;71.33;53.33;;;;;4.07;64.56;101556.03;5034781;28;45412;-56
2023/03/03 06:28:56;;;;;;;;;64.67;53.00;;;;;4.10;63.79;101567.63;5032916;28;45330;-55
2023/03/03 06:31:22;;;;;;;;;61.33;52.00;;;;;4.17;63.80;101575.03;5032743;28;47334;-57
2023/03/03 06:33:47;;;;;;;;;71.67;55.67;;;;;4.19;64.20;101580.31;5016104;28;45473;-55
2023/03/03 06:36:13;;;;;;;;;72.33;56.33;;;;;4.02;65.14;101590.97;5032684;28;45500;-56
2023/03/03 06:38:38;;;;;;;;;73.67;56.00;;;;;3.99;65.29;101602.13;5008387;28;45562;-57
2023/03/03 06:41:06;;;;;;;;;71.33;56.00;;;;;3.87;65.58;101600.56;4996016;28;45920;-56
2023/03/03 06:43:32;;;;;;;;;72.33;53.67;;;;;3.86;64.97;101602.44;5034179;28;45262;-56
2023/03/03 06:45:58;;;;;;;;;72.33;58.33;;;;;3.91;65.09;101613.69;5033428;28;45246;-57
2023/03/03 06:48:23;;;;;;;;;70.67;56.67;;;;;3.88;65.11;101599.56;5033154;28;45215;-56
2023/03/03 06:50:49;;;;;;;;;73.33;60.00;;;;;4.02;64.31;101618.13;5034113;28;45522;-57
2023/03/03 06:53:15;;;;;;;;;82.00;61.67;;;;;3.78;65.14;101583.28;5032292;28;45961;-57
2023/03/03 06:55:43;;;;;;;;;69.00;50.33;;;;;3.93;65.03;101613.56;5034282;28;45254;-55
2023/03/03 06:58:13;;;;;;;;;74.33;58.67;;;;;3.70;65.19;101581.31;5034237;28;45477;-55
2023/03/03 07:00:42;;;;;;;;;80.00;62.33;;;;;3.71;65.03;101577.59;5016147;28;46523;-57
2023/03/03 07:03:13;;;;;;;;;79.33;59.33;;;;;4.04;64.68;101621.56;5034079;28;45356;-57
2023/03/03 07:05:39;;;;;;;;;78.33;61.33;;;;;4.17;64.58;101626.66;5032640;28;45410;-56
2023/03/03 07:08:15;;;;;;;;;83.00;57.67;;;;;4.20;63.88;101623.66;5034259;28;45477;-56
2023/03/03 07:10:41;;;;;;;;;79.33;59.33;;;;;4.31;63.62;101636.19;5016236;28;47648;-58
2023/03/03 07:13:39;;;;;;;;;77.67;59.33;;;;;4.26;64.54;101640.38;5033907;28;45791;-61
2023/03/03 07:16:09;;;;;;;;;71.33;53.33;;;;;4.08;64.48;101635.69;5000398;28;45456;-57
2023/03/03 07:18:53;;;;;;;;;84.67;63.67;;;;;4.11;64.87;101659.84;5016315;28;45578;-57
2023/03/03 07:21:35;;;;;;;;;66.67;51.67;;;;;4.13;64.00;101649.72;5033567;28;46391;-59
2023/03/03 07:24:18;;;;;;;;;84.00;61.67;;;;;4.23;63.90;101663.28;5051322;28;45320;-56
2023/03/03 07:26:44;;;;;;;;;79.00;61.67;;;;;4.31;63.97;101648.91;5040656;28;45415;-57
2023/03/03 07:29:25;;;;;;;;;72.00;59.00;;;;;4.07;63.36;101602.22;5039549;28;45300;-56
2023/03/03 07:31:51;;;;;;;;;84.33;61.00;;;;;4.30;63.81;101626.34;5073965;27;46655;-54
2023/03/03 07:34:22;;;;;;;;;84.00;60.67;;;;;4.25;63.79;101634.06;5073932;27;45387;-60
2023/03/03 07:37:01;;;;;;;;;79.67;62.33;;;;;4.36;63.49;101656.66;5072841;28;45334;-60
2023/03/03 07:39:28;;;;;;;;;79.67;60.00;;;;;4.23;63.42;101640.66;5060579;27;45609;-59
2023/03/03 07:42:18;;;;;;;;;77.00;60.67;;;;;4.25;64.18;101654.94;5060749;28;46791;-59
2023/03/03 07:44:45;;;;;;;;;74.00;57.67;;;;;4.13;63.40;101635.25;5068065;28;45415;-59
2023/03/03 07:47:21;;;;;;;;;77.33;58.67;;;;;4.32;63.25;101650.66;5073866;27;45366;-58
2023/03/03 07:49:48;;;;;;;;;75.33;60.00;;;;;4.39;63.06;101656.34;5073579;28;45557;-62
2023/03/03 07:52:23;;;;;;;;;82.67;61.33;;;;;4.40;63.28;101672.50;5073494;27;46528;-59
2023/03/03 07:54:48;;;;;;;;;88.67;65.00;;;;;4.39;62.93;101673.53;5073549;27;45545;-60
2023/03/03 07:57:45;;;;;;;;;85.00;64.00;;;;;4.44;63.76;101671.19;5073650;28;45574;-61
2023/03/03 08:00:15;;;;;;;;;82.67;59.33;;;;;4.48;63.71;101683.50;5073802;27;45536;-65
2023/03/03 08:02:44;;;;;;;;;84.00;61.00;;;;;4.32;62.82;101673.25;5076940;27;45728;-59
2023/03/03 08:05:28;;;;;;;;;84.00;64.33;;;;;4.40;63.29;101691.53;5076047;27;45184;-57
2023/03/03 08:08:28;;;;;;;;;83.33;63.00;;;;;4.45;63.46;101697.41;5077130;28;45408;-61
2023/03/03 08:10:54;;;;;;;;;76.33;59.00;;;;;4.50;63.23;101693.38;5075565;28;45357;-53
2023/03/03 08:13:20;;;;;;;;;83.00;62.67;;;;;4.46;63.55;101695.53;5075871;28;47342;-60
2023/03/03 08:16:06;;;;;;;;;79.67;61.33;;;;;4.53;63.58;101696.63;5092906;27;45487;-60
2023/03/03 08:18:37;;;;;;;;;83.33;64.33;;;;;4.23;62.99;101643.38;5030628;28;45444;-59
2023/03/03 08:21:05;;;;;;;;;78.67;61.33;;;;;4.38;63.43;101665.50;5076087;28;45646;-56
2023/03/03 08:23:31;;;;;;;;;74.67;58.00;;;;;4.55;63.59;101680.19;5074439;28;46260;-56
2023/03/03 08:25:56;;;;;;;;;82.00;60.67;;;;;4.63;63.41;101695.75;5056374;28;45385;-59
2023/03/03 08:28:22;;;;;;;;;82.00;62.33;;;;;4.22;62.60;101606.34;5056769;28;45461;-57
2023/03/03 08:30:48;;;;;;;;;88.00;66.00;;;;;4.80;63.14;101705.00;5055400;28;45404;-58
2023/03/03 08:33:14;;;;;;;;;82.00;64.33;;;;;4.75;62.57;101709.00;5071623;28;47931;-59
2023/03/03 08:35:39;;;;;;;;;86.33;63.00;;;;;4.68;62.79;101713.34;5056251;28;45345;-59
2023/03/03 08:38:05;;;;;;;;;75.00;54.67;;;;;4.71;62.67;101709.47;5055243;28;45343;-57
2023/03/03 08:40:31;;;;;;;;;84.67;62.33;;;;;4.67;62.40;101710.75;5056649;28;45306;-56
2023/03/03 08:42:57;;;;;;;;;85.67;65.67;;;;;4.13;62.86;101640.69;5054852;28;45386;-58
2023/03/03 08:45:23;;;;;;;;;84.67;62.33;;;;;4.52;63.51;101716.69;5054679;28;45625;-55
2023/03/03 08:47:48;;;;;;;;;77.00;60.33;;;;;4.41;63.86;101705.97;5056435;28;45294;-60
2023/03/03 08:50:14;;;;;;;;;82.67;62.67;;;;;4.60;62.90;101707.78;5056002;28;45356;-58
2023/03/03 08:52:40;;;;;;;;;83.67;62.67;;;;;4.63;62.22;101674.84;5054911;28;47759;-58
2023/03/03 08:55:05;;;;;;;;;87.33;64.00;;;;;4.98;62.32;101714.06;5056094;28;45455;-58
2023/03/03 08:57:31;;;;;;;;;87.00;65.00;;;;;4.96;61.59;101715.22;5056092;28;45520;-60
2023/03/03 08:59:56;;;;;;;;;85.67;63.67;;;;;4.96;62.36;101724.22;5056053;28;45583;-60
2023/03/03 09:02:22;;;;;;;;;80.33;61.33;;;;;5.08;62.06;101729.47;5071315;28;46811;-59
2023/03/03 09:04:47;;;;;;;;;88.33;65.00;;;;;5.11;61.25;101729.16;5054408;28;45449;-57
2023/03/03 09:07:13;;;;;;;;;84.33;66.33;;;;;4.99;61.50;101721.22;5055720;28;45404;-59
2023/03/03 09:09:38;;;;;;;;;85.33;64.00;;;;;4.99;61.40;101718.50;5055325;28;45467;-55
2023/03/03 09:12:14;;;;;;;;;81.33;62.33;;;;;5.07;61.33;101725.06;5055608;28;46452;-58
2023/03/03 09:14:40;;;;;;;;;84.00;63.33;;;;;5.06;60.72;101724.19;5054789;28;45733;-59
2023/03/03 09:17:23;;;;;;;;;82.67;61.33;;;;;5.10;60.92;101732.91;5055729;28;45376;-58
2023/03/03 09:19:48;;;;;;;;;87.33;65.00;;;;;5.12;61.26;101722.75;4902062;28;46928;-59
2023/03/03 09:22:21;;;;;;;;;83.67;63.33;;;;;5.04;60.49;101722.63;5035577;28;46122;-58
2023/03/03 09:24:46;;;;;;;;;76.33;59.33;;;;;5.16;60.42;101737.75;5035559;28;45521;-60
2023/03/03 09:27:23;;;;;;;;;79.33;61.33;;;;;4.99;59.93;101696.75;5017438;28;45382;-59
2023/03/03 09:29:49;;;;;;;;;82.33;60.00;;;;;5.10;59.67;101698.41;5034394;28;45357;-59
2023/03/03 09:32:25;;;;;;;;;81.67;59.33;;;;;5.39;59.26;101730.00;5034937;28;45625;-58
2023/03/03 09:34:51;;;;;;;;;85.67;64.33;;;;;5.47;60.15;101733.81;5034242;28;45472;-56
2023/03/03 09:37:20;;;;;;;;;84.67;64.67;;;;;5.24;59.06;101682.56;5035072;28;45379;-61
2023/03/03 09:39:48;;;;;;;;;81.67;61.00;;;;;5.55;59.15;101742.94;5035218;28;45362;-58
2023/03/03 09:42:21;;;;;;;;;81.67;60.00;;;;;5.17;59.21;101674.13;5033184;28;46617;-61
2023/03/03 09:45:11;;;;;;;;;77.33;58.33;;;;;5.48;59.73;101750.03;5017748;28;45479;-58
2023/03/03 09:47:46;;;;;;;;;74.67;58.67;;;;;5.61;58.69;101737.91;5034888;28;45334;-56
2023/03/03 09:50:36;;;;;;;;;76.33;59.00;;;;;5.65;58.73;101750.22;5033546;28;45606;-56
2023/03/03 09:53:29;;;;;;;;;77.33;57.00;;;;;5.69;58.31;101746.16;5050246;28;46593;-58
2023/03/03 09:56:06;;;;;;;;;76.67;55.33;;;;;5.60;58.78;101749.81;5034905;28;45389;-59
2023/03/03 09:58:50;;;;;;;;;68.33;52.67;;;;;5.49;58.41;101732.66;5034631;28;45398;-58
2023/03/03 10:01:36;;;;;;;;;72.67;55.67;;;;;5.57;58.24;101737.34;5034883;28;45398;-53
2023/03/03 10:04:23;;;;;;;;;74.33;56.33;;;;;5.66;57.77;101744.59;5034740;28;46605;-56
2023/03/03 10:07:11;;;;;;;;;75.67;58.00;;;;;5.84;58.58;101757.38;5014643;28;45516;-59
2023/03/03 10:09:39;;;;;;;;;76.67;58.00;;;;;6.01;57.79;101761.09;5014496;28;45156;-58
2023/03/03 10:12:24;;;;;;;;;76.67;58.67;;;;;5.92;57.23;101752.00;5015398;28;45431;-57
2023/03/03 10:15:14;;;;;;;;;71.00;57.33;;;;;6.22;57.16;101765.38;5013953;28;47370;-58
2023/03/03 10:17:42;;;;;;;;;77.67;58.33;;;;;6.43;56.89;101766.91;5014921;28;45661;-60
2023/03/03 10:20:32;;;;;;;;;72.00;54.00;;;;;6.56;56.62;101770.06;5013352;28;45785;-59
2023/03/03 10:23:13;;;;;;;;;72.00;57.67;;;;;6.52;56.02;101755.06;5024007;28;45869;-58
2023/03/03 10:26:00;;;;;;;;;72.33;53.00;;;;;6.61;56.19;101772.31;5031743;28;45423;-59
2023/03/03 10:28:47;;;;;;;;;74.00;57.33;;;;;6.56;55.24;101748.25;4992250;28;45492;-57
2023/03/03 10:31:30;;;;;;;;;74.33;57.33;;;;;6.80;55.47;101778.56;5034282;28;45396;-57
2023/03/03 10:34:09;;;;;;;;;76.33;56.67;;;;;6.69;54.60;101752.41;5034250;28;45396;-58
2023/03/03 10:36:40;;;;;;;;;78.67;58.33;;;;;6.91;54.79;101762.78;5032785;28;45384;-55
2023/03/03 10:39:32;;;;;;;;;74.67;54.33;;;;;7.07;53.89;101772.06;5033200;28;45405;-56
2023/03/03 10:42:10;;;;;;;;;73.00;54.67;;;;;7.06;54.23;101743.06;5025630;28;45530;-60
2023/03/03 10:44:52;;;;;;;;;62.67;49.33;;;;;6.75;54.03;101661.72;5021309;28;45533;-61
2023/03/03 10:47:25;;;;;;;;;73.75;58.25;;;;;7.42;52.80;101745.56;5007988;28;46606;-60
2023/03/03 10:49:54;;;;;;;;;73.67;55.67;;;;;7.63;52.40;101771.56;5015218;28;45466;-60
2023/03/03 10:52:32;;;;;;;;;67.67;52.67;;;;;7.77;52.49;101782.88;5027972;28;45587;-62
2023/03/03 10:55:26;;;;;;;;;67.67;55.33;;;;;7.82;51.84;101769.56;5031605;28;45299;-59
2023/03/03 10:58:13;;;;;;;;;70.33;54.00;;;;;7.76;52.11;101756.56;5032345;28;45391;-58
2023/03/03 11:00:53;;;;;;;;;70.33;53.33;;;;;7.88;51.58;101777.09;5014894;28;45943;-61
2023/03/03 11:03:41;;;;;;;;;69.00;53.50;;;;;8.00;51.88;101770.28;5017187;28;45314;-58
2023/03/03 11:06:18;;;;;;;;;68.00;50.75;;;;;8.16;50.82;101754.88;5031452;28;45489;-58
2023/03/03 11:08:50;;;;;;;;;66.33;54.33;;;;;8.23;50.67;101763.28;5031187;28;47246;-57
2023/03/03 11:11:22;;;;;;;;;68.00;53.67;;;;;8.31;50.52;101755.06;5032708;28;45354;-58
2023/03/03 11:13:55;;;;;;;;;64.00;51.25;;;;;8.41;50.43;101763.09;5031440;28;45927;-58
2023/03/03 11:16:34;;;;;;;;;65.67;50.00;;;;;8.43;49.32;101766.50;5031262;28;45426;-61
2023/03/03 11:19:31;;;;;;;;;65.00;50.50;;;;;8.54;50.58;101763.44;5047353;28;46609;-55
2023/03/03 11:22:24;;;;;;;;;70.25;55.25;;;;;8.46;49.99;101708.72;5031884;28;45350;-59
2023/03/03 11:25:23;;;;;;;;;63.75;48.50;;;;;8.88;49.71;101764.25;5041690;28;45453;-56
2023/03/03 11:28:12;;;;;;;;;67.50;50.00;;;;;8.98;48.10;101746.75;5032676;28;45916;-60
2023/03/03 11:30:38;;;;;;;;;67.25;51.75;;;;;9.06;48.87;101754.91;5032359;28;46151;-59